createdAt,value
2023-04-18T00:02:23.042Z,99859.91
2023-04-18T00:05:27.296Z,99862.91
2023-04-18T00:08:30.243Z,99861.56
2023-04-18T00:11:34.630Z,99863.75
2023-04-18T00:14:38.198Z,99863.06
2023-04-18T00:17:41.161Z,99858.06
2023-04-18T00:20:43.842Z,99869.22
2023-04-18T00:23:46.912Z,99862.81
2023-04-18T00:26:49.705Z,99860.81
2023-04-18T00:29:54.658Z,99870.69
2023-04-18T00:32:57.524Z,99874.50
2023-04-18T00:36:00.581Z,99872.09
2023-04-18T00:39:03.586Z,99868.22
2023-04-18T00:42:07.065Z,99875.72
2023-04-18T00:45:10.257Z,99875.53
2023-04-18T00:48:13.466Z,99872.78
2023-04-18T00:51:16.623Z,99879.47
2023-04-18T00:54:20.605Z,99879.03
2023-04-18T00:57:23.129Z,99876.97
2023-04-18T01:00:29.389Z,99874.03
2023-04-18T01:03:33.052Z,99868.75
2023-04-18T01:06:37.162Z,99868.84
2023-04-18T01:09:40.535Z,99871.63
2023-04-18T01:12:43.565Z,99867.44
2023-04-18T01:15:49.214Z,99863.53
2023-04-18T01:18:52.459Z,99866.59
2023-04-18T01:21:55.191Z,99860.88
2023-04-18T01:24:58.722Z,99857.69
2023-04-18T01:28:01.843Z,99854.75
2023-04-18T01:31:05.632Z,99864.94
2023-04-18T01:34:08.649Z,99858.22
2023-04-18T01:37:11.980Z,99856.69
2023-04-18T01:40:16.148Z,99857.25
2023-04-18T01:43:21.201Z,99855.69
2023-04-18T01:46:23.922Z,99862.94
2023-04-18T01:49:27.039Z,99866.88
2023-04-18T01:52:30.003Z,99866.56
2023-04-18T01:55:32.951Z,99862.53
2023-04-18T01:58:36.034Z,99869.50
2023-04-18T02:01:38.966Z,99863.00
2023-04-18T02:04:44.963Z,99863.56
2023-04-18T02:07:50.166Z,99869.06
2023-04-18T02:10:53.268Z,99869.50
2023-04-18T02:13:57.605Z,99873.81
2023-04-18T02:17:00.837Z,99863.94
2023-04-18T02:20:04.099Z,99871.22
2023-04-18T02:23:07.403Z,99870.78
2023-04-18T02:26:10.050Z,99871.50
2023-04-18T02:29:15.733Z,99876.69
2023-04-18T02:32:19.351Z,99887.50
2023-04-18T02:35:23.110Z,99882.19
2023-04-18T02:38:25.771Z,99872.78
2023-04-18T02:41:28.818Z,99873.56
2023-04-18T02:44:31.416Z,99872.22
2023-04-18T02:47:43.873Z,99869.88
2023-04-18T02:51:03.463Z,99874.16
2023-04-18T02:54:07.523Z,99872.75
2023-04-18T02:57:10.945Z,99876.75
2023-04-18T03:00:15.076Z,99886.22
2023-04-18T03:03:22.464Z,99885.25
2023-04-18T03:06:27.288Z,99878.72
2023-04-18T03:09:33.765Z,99887.19
2023-04-18T03:12:37.576Z,99890.34
2023-04-18T03:15:40.538Z,99891.06
2023-04-18T03:18:44.232Z,99887.91
2023-04-18T03:21:48.164Z,99888.75
2023-04-18T03:24:51.367Z,99893.19
2023-04-18T03:27:54.333Z,99887.97
2023-04-18T03:30:57.572Z,99893.97
2023-04-18T03:34:00.921Z,99893.13
2023-04-18T03:37:04.033Z,99887.25
2023-04-18T03:40:08.385Z,99889.63
2023-04-18T03:43:11.789Z,99889.16
2023-04-18T03:46:14.955Z,99890.00
2023-04-18T03:49:18.670Z,99895.44
2023-04-18T03:52:21.482Z,99898.94
2023-04-18T03:55:26.531Z,99899.50
2023-04-18T03:58:30.007Z,99895.31
2023-04-18T04:01:33.271Z,99906.72
2023-04-18T04:04:37.572Z,99902.09
2023-04-18T04:07:40.546Z,99900.06
2023-04-18T04:10:44.120Z,99904.97
2023-04-18T04:13:48.147Z,99915.03
2023-04-18T04:16:52.916Z,99918.66
2023-04-18T04:19:56.173Z,99916.78
2023-04-18T04:23:00.126Z,99923.16
2023-04-18T04:26:07.120Z,99931.78
2023-04-18T04:29:19.582Z,99925.28
2023-04-18T04:32:31.455Z,99932.63
2023-04-18T04:35:36.923Z,99931.03
2023-04-18T04:38:41.668Z,99921.31
2023-04-18T04:41:47.868Z,99926.69
2023-04-18T04:44:56.825Z,99936.44
2023-04-18T04:48:01.527Z,99935.03
2023-04-18T04:51:05.623Z,99938.88
2023-04-18T04:54:09.712Z,99939.47
2023-04-18T04:57:14.024Z,99938.88
2023-04-18T05:00:21.358Z,99943.41
2023-04-18T05:03:25.616Z,99948.16
2023-04-18T05:06:30.207Z,99947.28
2023-04-18T05:09:34.134Z,99954.72
2023-04-18T05:12:39.491Z,99945.84
2023-04-18T05:15:45.386Z,99950.91
2023-04-18T05:18:51.381Z,99956.37
2023-04-18T05:21:55.152Z,99960.47
2023-04-18T05:25:00.825Z,99955.78
2023-04-18T05:28:08.597Z,99952.03
2023-04-18T05:31:16.266Z,99966.16
2023-04-18T05:34:20.357Z,99962.50
2023-04-18T05:37:25.473Z,99964.25
2023-04-18T05:40:30.051Z,99966.78
2023-04-18T05:43:34.053Z,99968.34
2023-04-18T05:46:37.462Z,99969.56
2023-04-18T05:49:41.867Z,99971.09
2023-04-18T05:52:46.069Z,99971.75
2023-04-18T05:55:50.652Z,99975.22
2023-04-18T05:58:56.593Z,99968.69
2023-04-18T06:02:00.379Z,99977.13
2023-04-18T06:05:04.557Z,99964.06
2023-04-18T06:08:08.188Z,99974.78
2023-04-18T06:11:11.899Z,99979.81
2023-04-18T06:14:16.302Z,99973.38
2023-04-18T06:17:19.927Z,99979.09
2023-04-18T06:20:24.914Z,99978.31
2023-04-18T06:23:43.414Z,99984.84
2023-04-18T06:27:51.318Z,99987.09
2023-04-18T06:30:54.517Z,99986.00
2023-04-18T06:34:03.525Z,99989.50
2023-04-18T06:46:10.657Z,99992.31
2023-04-18T06:53:44.751Z,99995.09
2023-04-18T06:56:48.672Z,99998.16
2023-04-18T07:00:04.908Z,99996.91
2023-04-18T07:03:32.254Z,99996.25
2023-04-18T07:06:35.559Z,100000.97
2023-04-18T07:10:49.578Z,100004.28
2023-04-18T07:18:20.547Z,100009.38
2023-04-18T07:21:55.447Z,100007.59
2023-04-18T07:25:21.375Z,100012.12
2023-04-18T07:28:46.526Z,100019.59
2023-04-18T07:31:52.676Z,100019.84
2023-04-18T07:34:57.463Z,100023.37
2023-04-18T07:38:16.467Z,100029.28
2023-04-18T07:41:20.475Z,100026.59
2023-04-18T07:44:25.544Z,100024.81
2023-04-18T07:47:30.383Z,100031.09
2023-04-18T07:50:34.846Z,100028.09
2023-04-18T07:53:40.948Z,100036.59
2023-04-18T07:56:47.589Z,100037.66
2023-04-18T07:59:55.348Z,100044.47
2023-04-18T08:03:02.943Z,100045.59
2023-04-18T08:06:06.717Z,100042.47
2023-04-18T08:09:10.438Z,100055.81
2023-04-18T08:12:15.460Z,100043.63
2023-04-18T08:15:19.521Z,100038.97
2023-04-18T08:18:31.679Z,100045.09
2023-04-18T08:21:38.384Z,100052.62
2023-04-18T08:24:57.267Z,100048.13
2023-04-18T08:28:06.968Z,100048.38
2023-04-18T08:31:15.113Z,100055.75
2023-04-18T08:34:19.556Z,100055.34
2023-04-18T08:37:22.664Z,100052.00
2023-04-18T08:40:25.785Z,100059.81
2023-04-18T08:43:31.131Z,100050.25
2023-04-18T08:46:38.536Z,100053.44
2023-04-18T08:49:45.805Z,100058.19
2023-04-18T08:52:53.838Z,100056.88
2023-04-18T08:55:58.163Z,100061.25
2023-04-18T08:59:01.280Z,100055.19
2023-04-18T09:02:09.075Z,100054.63
2023-04-18T09:05:13.778Z,100050.94
2023-04-18T09:08:27.891Z,100056.72
2023-04-18T09:11:32.056Z,100052.25
2023-04-18T09:14:43.068Z,100050.44
2023-04-18T09:17:53.198Z,100058.63
2023-04-18T09:20:57.345Z,100059.94
2023-04-18T09:24:21.020Z,100072.19
2023-04-18T09:27:24.938Z,100056.88
2023-04-18T09:30:42.300Z,100054.66
2023-04-18T09:33:56.944Z,100060.16
2023-04-18T09:37:07.782Z,100051.84
2023-04-18T09:40:19.111Z,100057.53
2023-04-18T09:43:22.053Z,100057.75
2023-04-18T09:46:27.466Z,100057.47
2023-04-18T09:49:30.990Z,100066.81
2023-04-18T09:52:36.305Z,100057.72
2023-04-18T09:55:40.342Z,100064.37
2023-04-18T09:58:47.734Z,100053.13
2023-04-18T10:02:29.560Z,100060.69
2023-04-18T10:05:40.871Z,100053.00
2023-04-18T10:08:54.933Z,100044.00
2023-04-18T10:12:06.077Z,100053.44
2023-04-18T10:15:11.934Z,100058.03
2023-04-18T10:18:21.430Z,100046.63
2023-04-18T10:21:24.296Z,100050.41
2023-04-18T10:24:52.987Z,100055.25
2023-04-18T10:28:03.783Z,100029.75
2023-04-18T10:31:10.218Z,100054.59
2023-04-18T10:34:18.249Z,100047.53
2023-04-18T10:37:32.181Z,100043.41
2023-04-18T10:40:37.471Z,100051.13
2023-04-18T10:44:08.951Z,100056.50
2023-04-18T10:47:22.355Z,100051.78
2023-04-18T10:50:28.846Z,100051.56
2023-04-18T10:53:31.636Z,100054.75
2023-04-18T10:56:37.897Z,100043.31
2023-04-18T10:59:52.282Z,100044.03
2023-04-18T11:02:57.644Z,100050.06
2023-04-18T11:06:13.017Z,100049.66
2023-04-18T11:09:19.369Z,100043.72
2023-04-18T11:12:22.628Z,100041.09
2023-04-18T11:15:30.384Z,100035.91
2023-04-18T11:18:43.937Z,100033.13
2023-04-18T11:21:49.920Z,100043.09
2023-04-18T11:25:00.644Z,100044.53
2023-04-18T11:28:06.947Z,100051.47
2023-04-18T11:31:10.887Z,100054.47
2023-04-18T11:34:16.962Z,100045.75
2023-04-18T11:37:20.005Z,100055.31
2023-04-18T11:40:24.571Z,100064.81
2023-04-18T11:43:45.803Z,100040.25
2023-04-18T11:46:53.155Z,100055.06
2023-04-18T11:49:58.980Z,100048.13
2023-04-18T11:53:06.747Z,100041.88
2023-04-18T11:56:13.631Z,100032.75
2023-04-18T11:59:19.873Z,100044.03
2023-04-18T12:02:26.487Z,100041.75
2023-04-18T12:05:34.115Z,100041.19
2023-04-18T12:08:37.330Z,100051.66
2023-04-18T12:11:42.094Z,100029.69
2023-04-18T12:14:46.301Z,100039.31
2023-04-18T12:17:53.299Z,100040.06
2023-04-18T12:20:57.358Z,100084.37
2023-04-18T12:24:13.288Z,100048.31
2023-04-18T12:27:16.696Z,100028.13
2023-04-18T12:30:22.860Z,100046.94
2023-04-18T12:33:27.351Z,100040.00
2023-04-18T12:36:32.778Z,100035.38
2023-04-18T12:39:37.296Z,100057.56
2023-04-18T12:42:44.520Z,100040.00
2023-04-18T12:45:47.837Z,100039.59
2023-04-18T12:48:51.987Z,100042.34
2023-04-18T12:51:56.213Z,100048.56
2023-04-18T12:55:00.144Z,100047.91
2023-04-18T12:58:03.710Z,100046.12
2023-04-18T13:01:07.715Z,100032.25
2023-04-18T13:04:12.869Z,100043.09
2023-04-18T13:07:16.265Z,100030.09
2023-04-18T13:10:21.372Z,100028.25
2023-04-18T13:13:24.343Z,100025.41
2023-04-18T13:16:27.745Z,100031.44
2023-04-18T13:19:31.103Z,100029.06
2023-04-18T13:22:34.291Z,100037.91
2023-04-18T13:25:37.275Z,100043.97
2023-04-18T13:28:39.861Z,100032.75
2023-04-18T13:31:43.482Z,100046.44
2023-04-18T13:34:48.217Z,100036.25
2023-04-18T13:37:51.302Z,100033.09
2023-04-18T13:41:04.456Z,100048.13
2023-04-18T13:44:14.520Z,100037.41
2023-04-18T13:47:17.317Z,100035.75
2023-04-18T13:50:20.389Z,100039.06
2023-04-18T13:53:23.326Z,100037.44
2023-04-18T13:56:27.675Z,100044.09
2023-04-18T13:59:33.702Z,100050.13
2023-04-18T14:02:45.294Z,100067.22
2023-04-18T14:05:51.828Z,100058.22
2023-04-18T14:08:54.787Z,100057.19
2023-04-18T14:12:01.246Z,100044.88
2023-04-18T14:15:06.056Z,100041.06
2023-04-18T14:18:09.563Z,100037.72
2023-04-18T14:21:13.399Z,100037.88
2023-04-18T14:24:17.078Z,100034.41
2023-04-18T14:27:20.094Z,100034.41
2023-04-18T14:30:25.753Z,100023.37
2023-04-18T14:33:30.221Z,100027.06
2023-04-18T14:36:33.281Z,100025.56
2023-04-18T14:39:39.322Z,100024.03
2023-04-18T14:42:44.743Z,100028.53
2023-04-18T14:45:47.847Z,100020.88
2023-04-18T14:48:51.597Z,100031.19
2023-04-18T14:51:54.382Z,100033.84
2023-04-18T14:54:58.780Z,100026.38
2023-04-18T14:58:01.764Z,100024.34
2023-04-18T15:01:05.273Z,100038.88
2023-04-18T15:04:08.708Z,100046.53
2023-04-18T15:07:11.753Z,100044.66
2023-04-18T15:10:16.510Z,100041.53
2023-04-18T15:13:22.309Z,100043.63
2023-04-18T15:16:24.973Z,100035.22
2023-04-18T15:19:29.473Z,100034.03
2023-04-18T15:22:32.324Z,100033.34
2023-04-18T15:25:36.351Z,100037.31
2023-04-18T15:28:40.730Z,100046.50
2023-04-18T15:31:45.775Z,100035.19
2023-04-18T15:34:50.902Z,100040.87
2023-04-18T15:37:54.413Z,100032.16
2023-04-18T15:40:57.710Z,100026.22
2023-04-18T15:44:01.634Z,100027.88
2023-04-18T15:47:05.500Z,100032.88
2023-04-18T15:50:09.885Z,100040.87
2023-04-18T15:53:15.332Z,100033.16
2023-04-18T15:56:19.937Z,100039.16
2023-04-18T15:59:23.716Z,100042.50
2023-04-18T16:02:27.126Z,100035.34
2023-04-18T16:05:33.132Z,100031.66
2023-04-18T16:08:36.847Z,100034.53
2023-04-18T16:11:40.792Z,100028.72
2023-04-18T16:14:47.203Z,100032.16
2023-04-18T16:17:52.335Z,100040.53
2023-04-18T16:20:55.666Z,100040.53
2023-04-18T16:23:59.638Z,100039.19
2023-04-18T16:27:03.010Z,100042.44
2023-04-18T16:30:06.951Z,100045.31
2023-04-18T16:33:10.005Z,100049.12
2023-04-18T16:36:13.419Z,100048.78
2023-04-18T16:39:16.805Z,100048.28
2023-04-18T16:42:20.564Z,100058.75
2023-04-18T16:45:24.510Z,100062.22
2023-04-18T16:48:29.035Z,100056.12
2023-04-18T16:51:32.166Z,100044.94
2023-04-18T16:54:36.889Z,100051.88
2023-04-18T16:57:39.824Z,100051.81
2023-04-18T17:00:43.105Z,100055.91
2023-04-18T17:03:45.956Z,100060.63
2023-04-18T17:06:51.468Z,100062.59
2023-04-18T17:09:54.801Z,100057.91
2023-04-18T17:12:58.912Z,100057.53
2023-04-18T17:16:02.022Z,100058.16
2023-04-18T17:19:05.373Z,100056.25
2023-04-18T17:22:08.050Z,100061.37
2023-04-18T17:25:12.627Z,100051.91
2023-04-18T17:28:17.018Z,100059.22
2023-04-18T17:31:20.454Z,100060.84
2023-04-18T17:34:23.887Z,100051.03
2023-04-18T17:37:29.098Z,100055.69
2023-04-18T17:40:32.878Z,100061.69
2023-04-18T17:43:37.490Z,100060.38
2023-04-18T17:46:41.069Z,100055.31
2023-04-18T17:49:44.434Z,100060.75
2023-04-18T17:52:47.485Z,100065.53
2023-04-18T17:55:52.517Z,100068.88
2023-04-18T17:58:56.726Z,100076.53
2023-04-18T18:02:01.456Z,100070.13
2023-04-18T18:05:09.029Z,100073.63
2023-04-18T18:08:19.997Z,100071.13
2023-04-18T18:11:25.691Z,100075.44
2023-04-18T18:14:29.524Z,100081.09
2023-04-18T18:17:33.276Z,100081.28
2023-04-18T18:20:36.711Z,100081.37
2023-04-18T18:23:42.187Z,100083.19
2023-04-18T18:26:47.102Z,100086.44
2023-04-18T18:29:51.756Z,100087.19
2023-04-18T18:33:03.524Z,100092.22
2023-04-18T18:36:10.490Z,100093.28
2023-04-18T18:39:16.596Z,100093.28
2023-04-18T18:42:23.832Z,100093.44
2023-04-18T18:45:27.328Z,100100.19
2023-04-18T18:48:33.148Z,100096.25
2023-04-18T18:51:37.219Z,100098.22
2023-04-18T18:54:41.988Z,100105.81
2023-04-18T18:57:46.191Z,100107.81
2023-04-18T19:00:51.646Z,100122.09
2023-04-18T19:03:56.501Z,100143.91
2023-04-18T19:07:02.876Z,100136.50
2023-04-18T19:10:07.086Z,100140.97
2023-04-18T19:13:10.720Z,100143.38
2023-04-18T19:16:16.694Z,100149.00
2023-04-18T19:19:20.559Z,100145.37
2023-04-18T19:22:23.856Z,100151.66
2023-04-18T19:25:29.700Z,100150.91
2023-04-18T19:28:32.692Z,100148.03
2023-04-18T19:31:36.655Z,100150.41
2023-04-18T19:34:40.368Z,100143.97
2023-04-18T19:37:47.549Z,100145.66
2023-04-18T19:40:50.992Z,100145.97
2023-04-18T19:43:55.106Z,100153.63
2023-04-18T19:46:58.365Z,100151.25
2023-04-18T19:50:01.981Z,100149.16
2023-04-18T19:53:06.703Z,100154.91
2023-04-18T19:56:16.792Z,100155.47
2023-04-18T19:59:20.220Z,100154.06
2023-04-18T20:02:26.847Z,100161.03
2023-04-18T20:05:31.137Z,100161.31
2023-04-18T20:08:38.717Z,100161.91
2023-04-18T20:11:43.776Z,100168.59
2023-04-18T20:14:46.881Z,100171.12
2023-04-18T20:17:50.861Z,100177.00
2023-04-18T20:20:58.432Z,100170.00
2023-04-18T20:24:02.017Z,100177.56
2023-04-18T20:27:05.057Z,100179.78
2023-04-18T20:30:12.726Z,100184.09
2023-04-18T20:33:16.137Z,100200.34
2023-04-18T20:39:54.072Z,100211.56
2023-04-18T20:43:03.334Z,100186.41
2023-04-18T20:46:07.440Z,100171.06
2023-04-18T20:49:11.457Z,100163.16
2023-04-18T20:52:14.497Z,100162.16
2023-04-18T20:55:19.009Z,100165.81
2023-04-18T20:58:25.937Z,100166.22
2023-04-18T21:01:29.762Z,100158.81
2023-04-18T21:04:34.566Z,100166.50
2023-04-18T21:07:37.914Z,100164.69
2023-04-18T21:10:41.765Z,100164.69
2023-04-18T21:13:46.193Z,100152.69
2023-04-18T21:16:49.285Z,100157.69
2023-04-18T21:19:53.541Z,100166.59
2023-04-18T21:22:57.673Z,100157.84
2023-04-18T21:26:02.477Z,100159.34
2023-04-18T21:29:05.390Z,100159.19
2023-04-18T21:32:12.509Z,100157.38
2023-04-18T21:35:19.831Z,100152.91
2023-04-18T21:38:25.623Z,100157.00
2023-04-18T21:41:28.523Z,100152.91
2023-04-18T21:44:31.588Z,100150.97
2023-04-18T21:47:34.411Z,100144.66
2023-04-18T21:50:37.705Z,100141.06
2023-04-18T21:53:41.460Z,100152.06
2023-04-18T21:56:44.789Z,100146.47
2023-04-18T21:59:47.548Z,100147.88
2023-04-18T22:02:51.663Z,100147.88
2023-04-18T22:05:58.027Z,100142.13
2023-04-18T22:09:01.283Z,100141.72
2023-04-18T22:12:05.319Z,100137.53
2023-04-18T22:15:08.362Z,100136.69
2023-04-18T22:18:14.249Z,100141.97
2023-04-18T22:21:17.435Z,100135.56
2023-04-18T22:24:21.961Z,100135.81
2023-04-18T22:27:25.549Z,100134.28
2023-04-18T22:30:28.771Z,100132.88
2023-04-18T22:33:31.757Z,100129.38
2023-04-18T22:36:40.051Z,100129.81
2023-04-18T22:39:42.680Z,100121.28
2023-04-18T22:42:46.033Z,100125.16
2023-04-18T22:45:48.768Z,100119.72
2023-04-18T22:48:53.121Z,100119.88
2023-04-18T22:51:58.656Z,100111.37
2023-04-18T22:55:02.880Z,100114.56
2023-04-18T22:58:05.925Z,100108.31
2023-04-18T23:01:14.745Z,100096.97
2023-04-18T23:04:17.581Z,100097.53
2023-04-18T23:07:21.699Z,100091.09
2023-04-18T23:10:24.501Z,100090.00
2023-04-18T23:13:28.257Z,100085.41
2023-04-18T23:16:34.997Z,100085.41
2023-04-18T23:19:41.906Z,100084.00
2023-04-18T23:22:44.785Z,100088.84
2023-04-18T23:25:49.214Z,100077.00
2023-04-18T23:28:53.292Z,100079.66
2023-04-18T23:31:56.553Z,100074.09
2023-04-18T23:35:04.221Z,100066.53
2023-04-18T23:38:07.588Z,100064.84
2023-04-18T23:41:10.238Z,100059.41
2023-04-18T23:44:13.953Z,100055.91
2023-04-18T23:47:17.339Z,100051.19
2023-04-18T23:50:21.149Z,100042.00
2023-04-18T23:53:24.909Z,100044.19
2023-04-18T23:56:50.018Z,100050.78
2023-04-18T23:59:52.770Z,100043.66
